Cumberland, Canada
Current Conditions -  °F | °C
As of 4:00 PM on Tuesday 21 Oct 2014 (Local Time) from CYQQ Reporting Station
Rain Showers Rain Showers  
Wind Chill: 52°   Ceiling: 3000
Heat Index: 52°   Visibility: 2.5mi
Dew Point: 52°   Wind: 0mph
Humidity: 100%   Direction: NA
Pressure: 29.73"   Gusts: NA
Location:  49.62°N, 125.02°W
Report Text: CYQQ 212300Z 00000KT 2 1/2SM SHRA BR SCT005 BKN030 OVC060 11/11 A2973 RMK SF3SC4SC1 SLP069
Loading
Personal Weather Stations






























Interactive Weather Map
Tropical Storm Tracking
New forecast layout! Learn more

10-Day Weather Forecast

Advertisements
Track Severe Weather on mobile